Time,TemperatureF,DewpointF,PressureIn,WindDirection,WindDirectionDegrees,WindSpeedMPH,WindSpeedGustMPH,Humidity,HourlyPrecipIn,Conditions,Clouds,dailyrainin,SoftwareType,DateUTC
2013-08-05 00:13:00,84.0,75.2,30.01,SE,135,0.0,-999.0,75,-99.99,,,0.00,Acu-Link.com,2013-08-05 05:13:00,
2013-08-05 00:14:00,84.0,75.2,30.01,SE,135,0.0,-999.0,75,-99.99,,,0.00,Acu-Link.com,2013-08-05 05:14:00,
2013-08-05 00:29:00,83.8,75.4,30.01,NW,315,0.0,-999.0,76,-99.99,,,0.00,Acu-Link.com,2013-08-05 05:29:00,
2013-08-05 00:44:00,83.7,75.7,30.01,ENE,67,0.0,-999.0,77,-99.99,,,0.00,Acu-Link.com,2013-08-05 05:44:00,
2013-08-05 00:59:00,83.7,75.7,30.00,WSW,247,2.7,-999.0,77,-99.99,,,0.00,Acu-Link.com,2013-08-05 05:59:00,
2013-08-05 01:15:00,83.8,75.8,30.00,WNW,292,4.3,-999.0,77,-99.99,,,0.00,Acu-Link.com,2013-08-05 06:15:00,
2013-08-05 01:30:00,84.2,75.8,29.99,SE,135,5.8,-999.0,76,-99.99,,,0.00,Acu-Link.com,2013-08-05 06:30:00,
2013-08-05 01:45:00,84.6,76.5,29.99,SSE,157,4.3,-999.0,77,-99.99,,,0.00,Acu-Link.com,2013-08-05 06:45:00,
2013-08-05 02:00:00,84.7,76.3,29.99,SSW,202,4.7,-999.0,76,-99.99,,,0.00,Acu-Link.com,2013-08-05 07:00:00,
2013-08-05 02:15:00,84.6,76.5,29.99,SE,135,5.1,-999.0,77,-99.99,,,0.00,Acu-Link.com,2013-08-05 07:15:00,
2013-08-05 02:30:00,84.4,76.4,30.00,WSW,247,6.3,-999.0,77,-99.99,,,0.00,Acu-Link.com,2013-08-05 07:30:00,
2013-08-05 02:46:00,84.6,76.9,30.00,East,90,4.7,-999.0,78,-99.99,,,0.00,Acu-Link.com,2013-08-05 07:46:00,
2013-08-05 03:01:00,84.9,77.3,30.00,SSE,157,4.3,-999.0,78,-99.99,,,0.00,Acu-Link.com,2013-08-05 08:01:00,
2013-08-05 03:16:00,84.9,77.3,30.00,ESE,112,5.1,-999.0,78,-99.99,,,0.00,Acu-Link.com,2013-08-05 08:16:00,
2013-08-05 03:31:00,84.7,77.1,30.01,SW,225,5.1,-999.0,78,-99.99,,,0.00,Acu-Link.com,2013-08-05 08:31:00,
2013-08-05 03:46:00,84.4,77.1,30.00,South,180,4.3,-999.0,79,-99.99,,,0.00,Acu-Link.com,2013-08-05 08:46:00,
2013-08-05 04:01:00,83.7,76.8,30.00,SSW,202,5.8,-999.0,80,-99.99,,,0.00,Acu-Link.com,2013-08-05 09:01:00,
2013-08-05 04:17:00,83.3,76.8,30.00,North,0,5.8,-999.0,81,-99.99,,,0.00,Acu-Link.com,2013-08-05 09:17:00,
2013-08-05 04:32:00,82.9,76.5,30.00,ENE,67,2.2,-999.0,81,-99.99,,,0.00,Acu-Link.com,2013-08-05 09:32:00,
2013-08-05 04:47:00,82.8,76.3,30.00,SW,225,3.8,-999.0,81,-99.99,,,0.00,Acu-Link.com,2013-08-05 09:47:00,
2013-08-05 05:02:00,82.6,76.5,30.00,SE,135,4.3,-999.0,82,-99.99,,,0.00,Acu-Link.com,2013-08-05 10:02:00,
2013-08-05 05:18:00,82.0,76.0,30.00,SSE,157,3.1,-999.0,82,-99.99,,,0.00,Acu-Link.com,2013-08-05 10:18:00,
2013-08-05 05:33:00,81.9,75.8,30.01,SSE,157,4.7,-999.0,82,-99.99,,,0.00,Acu-Link.com,2013-08-05 10:33:00,
2013-08-05 05:48:00,81.7,75.6,30.01,SSW,202,3.8,-999.0,82,-99.99,,,0.00,Acu-Link.com,2013-08-05 10:48:00,
2013-08-05 06:03:00,81.3,75.3,30.01,SW,225,3.8,-999.0,82,-99.99,,,0.00,Acu-Link.com,2013-08-05 11:03:00,
2013-08-05 06:19:00,81.0,74.9,30.01,SSE,157,3.8,-999.0,82,-99.99,,,0.00,Acu-Link.com,2013-08-05 11:19:00,
2013-08-05 06:34:00,80.8,74.8,30.01,SW,225,3.8,-999.0,82,-99.99,,,0.00,Acu-Link.com,2013-08-05 11:34:00,
2013-08-05 06:49:00,80.6,74.6,30.01,South,180,4.7,-999.0,82,-99.99,,,0.00,Acu-Link.com,2013-08-05 11:49:00,
2013-08-05 07:04:00,80.4,74.4,30.02,SW,225,2.2,-999.0,82,-99.99,,,0.00,Acu-Link.com,2013-08-05 12:04:00,
2013-08-05 07:19:00,81.3,74.9,30.02,SSE,157,3.1,-999.0,81,-99.99,,,0.00,Acu-Link.com,2013-08-05 12:19:00,
2013-08-05 07:35:00,82.4,75.2,30.02,WSW,247,2.7,-999.0,79,-99.99,,,0.00,Acu-Link.com,2013-08-05 12:35:00,
2013-08-05 07:50:00,83.1,75.5,30.03,NNW,337,4.3,-999.0,78,-99.99,,,0.00,Acu-Link.com,2013-08-05 12:50:00,
2013-08-05 08:05:00,84.4,76.0,30.03,ESE,112,4.3,-999.0,76,-99.99,,,0.00,Acu-Link.com,2013-08-05 13:05:00,
2013-08-05 08:20:00,85.8,76.1,30.03,South,180,7.4,-999.0,73,-99.99,,,0.00,Acu-Link.com,2013-08-05 13:20:00,
2013-08-05 08:35:00,86.9,76.3,30.03,NE,45,5.8,-999.0,71,-99.99,,,0.00,Acu-Link.com,2013-08-05 13:35:00,
2013-08-05 08:50:00,87.8,75.0,30.04,South,180,6.7,-999.0,66,-99.99,,,0.00,Acu-Link.com,2013-08-05 13:50:00,
2013-08-05 09:06:00,88.9,75.1,30.04,SW,225,6.7,-999.0,64,-99.99,,,0.00,Acu-Link.com,2013-08-05 14:06:00,
2013-08-05 09:36:00,88.7,74.0,30.04,South,180,3.1,-999.0,62,-99.99,,,0.00,Acu-Link.com,2013-08-05 14:36:00,
2013-08-05 09:51:00,90.1,74.3,30.04,SE,135,3.1,-999.0,60,-99.99,,,0.00,Acu-Link.com,2013-08-05 14:51:00,
2013-08-05 10:07:00,90.5,74.2,30.04,West,270,5.1,-999.0,59,-99.99,,,0.00,Acu-Link.com,2013-08-05 15:07:00,
2013-08-05 10:22:00,91.2,74.3,30.04,South,180,3.8,-999.0,58,-99.99,,,0.00,Acu-Link.com,2013-08-05 15:22:00,
2013-08-05 10:37:00,92.7,74.1,30.04,West,270,7.8,-999.0,55,-99.99,,,0.00,Acu-Link.com,2013-08-05 15:37:00,
2013-08-05 10:52:00,93.6,73.8,30.04,WSW,247,3.8,-999.0,53,-99.99,,,0.00,Acu-Link.com,2013-08-05 15:52:00,
2013-08-05 11:08:00,93.6,73.2,30.03,WSW,247,4.7,-999.0,52,-99.99,,,0.00,Acu-Link.com,2013-08-05 16:08:00,
2013-08-05 11:23:00,94.6,73.1,30.03,WSW,247,7.8,-999.0,50,-99.99,,,0.00,Acu-Link.com,2013-08-05 16:23:00,
2013-08-05 11:38:00,96.4,72.9,30.02,SW,225,4.7,-999.0,47,-99.99,,,0.00,Acu-Link.com,2013-08-05 16:38:00,
2013-08-05 11:53:00,96.8,73.2,30.02,SW,225,5.8,-999.0,47,-99.99,,,0.00,Acu-Link.com,2013-08-05 16:53:00,
2013-08-05 12:08:00,97.0,73.4,30.02,WNW,292,6.3,-999.0,47,-99.99,,,0.00,Acu-Link.com,2013-08-05 17:08:00,
2013-08-05 12:23:00,98.2,74.5,30.01,SSW,202,3.8,-999.0,47,-99.99,,,0.00,Acu-Link.com,2013-08-05 17:23:00,
2013-08-05 12:39:00,97.9,73.5,30.01,NNE,22,4.3,-999.0,46,-99.99,,,0.00,Acu-Link.com,2013-08-05 17:39:00,
2013-08-05 12:54:00,98.4,72.7,29.99,South,180,5.1,-999.0,44,-99.99,,,0.00,Acu-Link.com,2013-08-05 17:54:00,
2013-08-05 13:09:00,99.7,73.1,30.00,SSE,157,4.7,-999.0,43,-99.99,,,0.00,Acu-Link.com,2013-08-05 18:09:00,
2013-08-05 13:40:00,99.7,71.7,29.98,SW,225,3.8,-999.0,41,-99.99,,,0.00,Acu-Link.com,2013-08-05 18:40:00,
2013-08-05 13:55:00,100.9,72.1,29.98,WSW,247,3.8,-999.0,40,-99.99,,,0.00,Acu-Link.com,2013-08-05 18:55:00,
2013-08-05 14:10:00,101.5,72.6,29.97,SW,225,8.9,-999.0,40,-99.99,,,0.00,Acu-Link.com,2013-08-05 19:10:00,
2013-08-05 14:25:00,101.7,72.8,29.97,WSW,247,6.3,-999.0,40,-99.99,,,0.00,Acu-Link.com,2013-08-05 19:25:00,
2013-08-05 14:56:00,102.6,72.0,29.95,SW,225,6.7,-999.0,38,-99.99,,,0.00,Acu-Link.com,2013-08-05 19:56:00,
2013-08-05 15:11:00,102.0,70.8,29.95,WSW,247,3.8,-999.0,37,-99.99,,,0.00,Acu-Link.com,2013-08-05 20:11:00,
2013-08-05 15:41:00,102.6,72.0,29.93,SSW,202,4.3,-999.0,38,-99.99,,,0.00,Acu-Link.com,2013-08-05 20:41:00,
2013-08-05 15:57:00,102.9,71.6,29.93,SW,225,5.1,-999.0,37,-99.99,,,0.00,Acu-Link.com,2013-08-05 20:57:00,
2013-08-05 16:12:00,103.3,71.9,29.92,SW,225,5.8,-999.0,37,-99.99,,,0.00,Acu-Link.com,2013-08-05 21:12:00,
2013-08-05 16:27:00,103.5,72.0,29.92,SW,225,6.3,-999.0,37,-99.99,,,0.00,Acu-Link.com,2013-08-05 21:27:00,
2013-08-05 16:42:00,102.7,70.6,29.91,SW,225,4.7,-999.0,36,-99.99,,,0.00,Acu-Link.com,2013-08-05 21:42:00,
2013-08-05 16:57:00,102.9,70.7,29.90,SSW,202,2.7,-999.0,36,-99.99,,,0.00,Acu-Link.com,2013-08-05 21:57:00,
2013-08-05 17:13:00,103.1,71.7,29.90,SSW,202,4.3,-999.0,37,-99.99,,,0.00,Acu-Link.com,2013-08-05 22:13:00,
2013-08-05 17:28:00,102.7,71.4,29.89,WNW,292,6.3,-999.0,37,-99.99,,,0.00,Acu-Link.com,2013-08-05 22:28:00,
2013-08-05 17:43:00,102.0,70.8,29.89,ESE,112,8.9,-999.0,37,-99.99,,,0.00,Acu-Link.com,2013-08-05 22:43:00,
2013-08-05 17:58:00,102.2,70.1,29.89,SW,225,6.3,-999.0,36,-99.99,,,0.00,Acu-Link.com,2013-08-05 22:58:00,
2013-08-05 18:13:00,103.8,69.0,29.89,NNE,22,3.8,-999.0,33,-99.99,,,0.00,Acu-Link.com,2013-08-05 23:13:00,
2013-08-05 18:29:00,103.1,69.2,29.88,South,180,7.4,-999.0,34,-99.99,,,0.00,Acu-Link.com,2013-08-05 23:29:00,
2013-08-05 18:44:00,102.2,68.4,29.88,SW,225,2.2,-999.0,34,-99.99,,,0.00,Acu-Link.com,2013-08-05 23:44:00,
2013-08-05 18:59:00,101.5,67.8,29.88,SE,135,3.8,-999.0,34,-99.99,,,0.00,Acu-Link.com,2013-08-05 23:59:00,
2013-08-05 19:29:00,99.7,68.7,29.87,SSW,202,4.3,-999.0,37,-99.99,,,0.00,Acu-Link.com,2013-08-06 00:29:00,
2013-08-05 19:45:00,98.2,68.2,29.87,SSW,202,5.8,-999.0,38,-99.99,,,0.00,Acu-Link.com,2013-08-06 00:45:00,
2013-08-05 20:00:00,96.4,68.1,29.87,SSW,202,2.2,-999.0,40,-99.99,,,0.00,Acu-Link.com,2013-08-06 01:00:00,
2013-08-05 20:15:00,95.2,67.7,29.88,South,180,2.7,-999.0,41,-99.99,,,0.00,Acu-Link.com,2013-08-06 01:15:00,
2013-08-05 20:30:00,93.7,67.8,29.88,SSW,202,2.7,-999.0,43,-99.99,,,0.00,Acu-Link.com,2013-08-06 01:30:00,
2013-08-05 20:45:00,92.7,68.2,29.88,West,270,0.0,-999.0,45,-99.99,,,0.00,Acu-Link.com,2013-08-06 01:45:00,
2013-08-05 21:01:00,91.9,68.2,29.88,NNE,22,0.0,-999.0,46,-99.99,,,0.00,Acu-Link.com,2013-08-06 02:01:00,
2013-08-05 21:16:00,91.6,67.8,29.89,SSW,202,1.6,-999.0,46,-99.99,,,0.00,Acu-Link.com,2013-08-06 02:16:00,
2013-08-05 21:31:00,90.7,68.3,29.89,ESE,112,2.7,-999.0,48,-99.99,,,0.00,Acu-Link.com,2013-08-06 02:31:00,
2013-08-05 21:46:00,90.3,69.1,29.89,SSW,202,2.7,-999.0,50,-99.99,,,0.00,Acu-Link.com,2013-08-06 02:46:00,
2013-08-05 22:02:00,89.6,69.6,29.90,South,180,2.7,-999.0,52,-99.99,,,0.00,Acu-Link.com,2013-08-06 03:02:00,
2013-08-05 22:17:00,89.6,70.2,29.90,SSW,202,2.7,-999.0,53,-99.99,,,0.00,Acu-Link.com,2013-08-06 03:17:00,
2013-08-05 22:32:00,88.9,69.5,29.91,South,180,2.7,-999.0,53,-99.99,,,0.00,Acu-Link.com,2013-08-06 03:32:00,
2013-08-05 22:47:00,87.4,69.8,29.91,South,180,2.7,-999.0,56,-99.99,,,0.00,Acu-Link.com,2013-08-06 03:47:00,
2013-08-05 23:02:00,86.0,69.5,29.91,SSE,157,2.7,-999.0,58,-99.99,,,0.00,Acu-Link.com,2013-08-06 04:02:00,
2013-08-05 23:18:00,85.8,69.8,29.91,SW,225,2.7,-999.0,59,-99.99,,,0.00,Acu-Link.com,2013-08-06 04:18:00,
2013-08-05 23:33:00,85.8,69.8,29.90,SSW,202,3.1,-999.0,59,-99.99,,,0.00,Acu-Link.com,2013-08-06 04:33:00,
2013-08-05 23:48:00,84.9,69.5,29.90,South,180,0.0,-999.0,60,-99.99,,,0.00,Acu-Link.com,2013-08-06 04:48:00,